sim
Sign-in with your pilot id or email,
or register
Callsign
Passwort

Schedule Details

Flight Number: RYR8582 (4)
Departure: London Stansted Airport (EGSS) at 13:45
Arrival: Thessaloniki International Airport (LGTS) at 16:55
Route: Ryanair Passenger Schedule. Enter filed route here before submitting Pirep.

Weather Information
Getting current METAR information for EGSS 211050Z AUTO 24010KT 9999 OVC010 11/08 Q1025
Getting current METAR information for LGTS 211050Z 34016KT CAVOK 16/M01 Q1023 NOSIG

Schedule Frequency

Route Map